Time;durP1;ratioP1;P1;durP2;ratioP2;P2;SDS_P1;SDS_P2;PMS_P1;PMS_P2;Temp;Humidity;BMP_temperature;BMP_pressure;BME280_temperature;BME280_humidity;BME280_pressure;Samples;Min_cycle;Max_cycle;Signal;HPM_P1;HPM_P2
2021/05/05 00:02:03;;;;;;;2.70;1.40;;;8.20;99.90;;;;;;5112985;28;20310;-56
2021/05/05 00:04:31;;;;;;;2.83;1.13;;;8.20;99.90;;;;;;5112732;28;20231;-54
2021/05/05 00:06:59;;;;;;;1.77;1.10;;;8.30;99.90;;;;;;5113208;28;20205;-56
2021/05/05 00:09:29;;;;;;;3.37;1.40;;;8.30;99.90;;;;;;5113209;28;20241;-56
2021/05/05 00:11:56;;;;;;;4.43;1.30;;;8.20;99.90;;;;;;5112928;28;20253;-54
2021/05/05 00:14:23;;;;;;;3.13;1.33;;;8.20;99.90;;;;;;5112913;28;20221;-53
2021/05/05 00:16:50;;;;;;;2.30;1.20;;;8.20;99.90;;;;;;5112766;28;20658;-56
2021/05/05 00:19:17;;;;;;;3.27;1.50;;;8.30;99.90;;;;;;5113062;28;20294;-55
2021/05/05 00:21:45;;;;;;;2.93;1.30;;;8.30;99.90;;;;;;5113093;28;20195;-54
2021/05/05 00:24:14;;;;;;;1.47;1.07;;;8.30;99.90;;;;;;5112993;28;20258;-55
2021/05/05 00:26:41;;;;;;;2.63;1.40;;;8.20;99.90;;;;;;5112731;28;20286;-55
2021/05/05 00:29:08;;;;;;;1.73;1.20;;;8.10;99.90;;;;;;5112853;28;20286;-55
2021/05/05 00:31:35;;;;;;;3.67;1.30;;;8.20;99.90;;;;;;5112740;28;20236;-57
2021/05/05 00:34:04;;;;;;;2.10;1.67;;;8.20;99.90;;;;;;5113055;28;20202;-55
2021/05/05 00:36:31;;;;;;;3.37;1.60;;;8.10;99.90;;;;;;5113133;28;20234;-54
2021/05/05 00:38:58;;;;;;;2.30;1.40;;;8.10;99.90;;;;;;5112908;28;20228;-55
2021/05/05 00:41:24;;;;;;;2.57;1.53;;;8.00;99.90;;;;;;5112705;28;20203;-55
2021/05/05 00:43:51;;;;;;;1.70;1.27;;;7.90;99.90;;;;;;5112442;28;20261;-57
2021/05/05 00:46:19;;;;;;;4.77;1.40;;;8.00;99.90;;;;;;5112597;28;20290;-58
2021/05/05 00:48:46;;;;;;;3.43;1.50;;;8.00;99.90;;;;;;5112884;28;20706;-53
2021/05/05 00:51:15;;;;;;;2.60;1.30;;;8.00;99.90;;;;;;5116006;28;20199;-55
2021/05/05 00:53:42;;;;;;;2.60;1.60;;;7.90;99.90;;;;;;5114594;28;20206;-55
2021/05/05 00:56:09;;;;;;;2.67;1.60;;;7.90;99.90;;;;;;5116305;28;20198;-54
2021/05/05 00:58:36;;;;;;;2.83;1.27;;;7.90;99.90;;;;;;5115574;28;20659;-56
2021/05/05 01:01:04;;;;;;;2.23;1.33;;;7.90;99.90;;;;;;5116293;28;20283;-56
2021/05/05 01:03:31;;;;;;;2.90;1.53;;;7.90;99.90;;;;;;5115803;28;20231;-54
2021/05/05 01:06:00;;;;;;;2.97;1.60;;;7.80;99.90;;;;;;5116227;28;20248;-56
2021/05/05 01:08:31;;;;;;;2.03;1.80;;;7.80;99.90;;;;;;5115844;28;20669;-56
2021/05/05 01:10:58;;;;;;;5.10;1.70;;;7.70;99.90;;;;;;5116112;28;20697;-57
2021/05/05 01:13:26;;;;;;;2.17;1.57;;;7.70;99.90;;;;;;5115774;28;20206;-55
2021/05/05 01:15:53;;;;;;;2.33;1.53;;;7.90;99.90;;;;;;5116058;28;20195;-57
2021/05/05 01:18:20;;;;;;;4.33;1.87;;;7.80;99.90;;;;;;5108216;28;20234;-54
2021/05/05 01:20:46;;;;;;;3.47;1.60;;;7.80;99.90;;;;;;5095489;28;20210;-56
2021/05/05 01:23:14;;;;;;;4.97;1.90;;;7.70;99.90;;;;;;5095366;28;20668;-56
2021/05/05 01:25:41;;;;;;;2.70;1.80;;;7.80;99.90;;;;;;5095640;28;20298;-53
2021/05/05 01:28:08;;;;;;;3.40;1.67;;;7.90;99.90;;;;;;5095249;28;20226;-55
2021/05/05 01:30:35;;;;;;;2.87;1.60;;;7.90;99.90;;;;;;5095289;28;20267;-55
2021/05/05 01:33:02;;;;;;;5.10;2.07;;;7.80;99.90;;;;;;5095255;28;20647;-56
2021/05/05 01:35:29;;;;;;;3.23;1.53;;;7.80;99.90;;;;;;5095516;28;20254;-54
2021/05/05 01:37:56;;;;;;;3.13;1.70;;;7.90;99.90;;;;;;5095157;28;20200;-54
2021/05/05 01:40:26;;;;;;;1.97;1.47;;;7.80;99.90;;;;;;5095341;28;20200;-53
2021/05/05 01:42:53;;;;;;;3.27;1.70;;;7.80;99.90;;;;;;5095018;28;20521;-53
2021/05/05 01:45:20;;;;;;;2.87;1.50;;;7.80;99.90;;;;;;5094912;28;20851;-50
2021/05/05 01:47:48;;;;;;;3.60;1.70;;;7.80;99.90;;;;;;5095127;28;20196;-55
2021/05/05 01:50:15;;;;;;;3.87;1.60;;;7.80;99.90;;;;;;5094632;28;20210;-53
2021/05/05 01:52:41;;;;;;;3.77;1.60;;;7.80;99.90;;;;;;5094859;28;20738;-55
2021/05/05 01:55:10;;;;;;;2.70;1.40;;;7.70;99.90;;;;;;5094943;28;20196;-54
2021/05/05 01:57:41;;;;;;;3.53;1.67;;;7.70;99.90;;;;;;5094481;28;20202;-55
2021/05/05 02:00:13;;;;;;;3.93;1.63;;;7.70;99.90;;;;;;5094601;28;20247;-57
2021/05/05 02:02:40;;;;;;;3.30;1.70;;;7.80;99.90;;;;;;5094428;28;20767;-53
2021/05/05 02:05:08;;;;;;;3.97;1.93;;;7.80;99.90;;;;;;5094485;28;20299;-65
2021/05/05 02:07:36;;;;;;;4.50;1.60;;;7.90;99.90;;;;;;5094805;28;20264;-65
2021/05/05 02:10:05;;;;;;;3.60;1.80;;;7.90;99.90;;;;;;5094774;28;20196;-66
2021/05/05 02:12:33;;;;;;;3.17;1.67;;;7.80;99.90;;;;;;5094559;28;20287;-65
2021/05/05 02:15:01;;;;;;;5.00;1.97;;;7.70;99.90;;;;;;5094385;28;20219;-65
2021/05/05 02:17:28;;;;;;;3.13;2.10;;;7.70;99.90;;;;;;5094444;28;20287;-65
2021/05/05 02:19:55;;;;;;;3.87;1.60;;;7.70;99.90;;;;;;5094259;28;20208;-65
2021/05/05 02:22:21;;;;;;;2.77;1.53;;;7.70;99.90;;;;;;5094284;28;20209;-65
2021/05/05 02:24:48;;;;;;;3.20;1.60;;;7.70;99.90;;;;;;5094346;28;20208;-65
2021/05/05 02:27:15;;;;;;;3.93;1.40;;;7.70;99.90;;;;;;5094139;28;20203;-64
2021/05/05 02:29:43;;;;;;;3.70;2.00;;;7.60;99.90;;;;;;5094193;28;20204;-65
2021/05/05 02:32:15;;;;;;;2.70;1.40;;;7.60;99.90;;;;;;5094049;28;20736;-65
2021/05/05 02:34:42;;;;;;;3.17;1.60;;;7.50;99.90;;;;;;5094170;28;20207;-65
2021/05/05 02:37:10;;;;;;;1.63;1.40;;;7.50;99.90;;;;;;5094222;28;20299;-65
2021/05/05 02:39:39;;;;;;;4.90;1.60;;;7.40;99.90;;;;;;5094060;28;20199;-65
2021/05/05 02:42:06;;;;;;;3.20;1.73;;;7.40;99.90;;;;;;5093698;28;20739;-65
2021/05/05 02:44:33;;;;;;;4.53;1.60;;;7.30;99.90;;;;;;5093737;28;20212;-66
2021/05/05 02:47:02;;;;;;;3.13;1.70;;;7.20;99.90;;;;;;5093727;28;20595;-65
2021/05/05 02:49:31;;;;;;;3.07;1.60;;;7.30;99.90;;;;;;5093985;28;20225;-66
2021/05/05 02:51:58;;;;;;;3.37;1.47;;;7.20;99.90;;;;;;5093812;28;20210;-65
2021/05/05 02:54:25;;;;;;;2.93;1.43;;;7.20;99.90;;;;;;5093550;28;20198;-64
2021/05/05 02:56:52;;;;;;;3.50;1.70;;;7.20;99.90;;;;;;5093568;28;20203;-65
2021/05/05 02:59:19;;;;;;;2.47;1.73;;;7.20;99.90;;;;;;5093559;28;20256;-65
2021/05/05 03:01:46;;;;;;;4.23;1.80;;;7.20;99.90;;;;;;5093657;28;20199;-65
2021/05/05 03:04:13;;;;;;;3.13;1.90;;;7.10;99.90;;;;;;5093248;28;20230;-65
2021/05/05 03:06:40;;;;;;;2.80;2.00;;;6.90;99.90;;;;;;5093675;28;20298;-65
2021/05/05 03:09:08;;;;;;;4.07;1.83;;;6.80;99.90;;;;;;5093681;28;20290;-65
2021/05/05 03:11:35;;;;;;;3.63;1.80;;;6.80;99.90;;;;;;5093344;28;20285;-65
2021/05/05 03:14:02;;;;;;;4.43;2.00;;;6.80;99.90;;;;;;5092740;28;20286;-65
2021/05/05 03:16:29;;;;;;;4.83;2.20;;;6.70;99.90;;;;;;5093353;28;20203;-65
2021/05/05 03:18:56;;;;;;;4.13;2.20;;;6.70;99.90;;;;;;5092783;28;20653;-65
2021/05/05 03:21:23;;;;;;;3.47;1.80;;;6.80;99.90;;;;;;5092992;28;20574;-64
2021/05/05 03:23:51;;;;;;;5.50;2.43;;;6.80;99.90;;;;;;5092758;28;20782;-65
2021/05/05 03:26:18;;;;;;;3.40;2.17;;;6.70;99.90;;;;;;5092923;28;20298;-65
2021/05/05 03:28:45;;;;;;;3.77;2.50;;;6.70;99.90;;;;;;5092893;28;20291;-64
2021/05/05 03:31:12;;;;;;;3.77;1.90;;;6.90;99.90;;;;;;5093232;28;20603;-65
2021/05/05 03:33:38;;;;;;;7.47;2.60;;;6.90;99.90;;;;;;5093169;28;20205;-64
2021/05/05 03:36:06;;;;;;;3.50;2.10;;;6.80;99.90;;;;;;5093108;28;20241;-64
2021/05/05 03:38:34;;;;;;;4.37;2.00;;;6.80;99.90;;;;;;5092959;28;20202;-66
2021/05/05 03:41:01;;;;;;;2.80;2.00;;;6.90;99.90;;;;;;5092451;28;20293;-64
2021/05/05 03:43:28;;;;;;;3.13;2.00;;;6.90;99.90;;;;;;5092453;28;20738;-65
2021/05/05 03:45:55;;;;;;;2.10;1.90;;;6.80;99.90;;;;;;5092665;28;20255;-65
2021/05/05 03:48:23;;;;;;;3.97;2.07;;;6.90;99.90;;;;;;5092658;28;20737;-65
2021/05/05 03:50:50;;;;;;;4.40;1.90;;;7.00;99.90;;;;;;5092689;28;20730;-65
2021/05/05 03:53:17;;;;;;;2.33;1.80;;;7.10;99.90;;;;;;5092869;28;20202;-66
2021/05/05 03:55:44;;;;;;;2.70;1.90;;;7.30;99.90;;;;;;5092864;28;20268;-64
2021/05/05 03:58:12;;;;;;;2.67;2.17;;;7.30;99.90;;;;;;5092517;28;20198;-66
2021/05/05 04:00:38;;;;;;;2.40;2.20;;;7.50;99.90;;;;;;5092476;28;20235;-65
2021/05/05 04:03:05;;;;;;;4.30;2.13;;;7.50;99.90;;;;;;5092231;28;20587;-64
2021/05/05 04:05:32;;;;;;;5.13;1.83;;;7.60;99.90;;;;;;5092434;28;20231;-65
2021/05/05 04:07:59;;;;;;;3.00;1.80;;;7.50;99.90;;;;;;5092429;28;20787;-64
2021/05/05 04:10:26;;;;;;;3.17;2.00;;;7.50;99.90;;;;;;5092629;28;20224;-65
2021/05/05 04:12:53;;;;;;;4.00;2.07;;;7.60;99.90;;;;;;5092125;28;20208;-65
2021/05/05 04:15:39;;;;;;;3.30;2.03;;;7.60;99.90;;;;;;5092471;28;20545;-66
2021/05/05 04:18:23;;;;;;;4.50;2.30;;;7.60;99.90;;;;;;5092366;28;20188;-65
2021/05/05 04:21:09;;;;;;;2.83;2.00;;;7.70;99.90;;;;;;5092284;28;20585;-65
2021/05/05 04:23:54;;;;;;;2.60;1.73;;;7.70;99.90;;;;;;5092311;28;20638;-65
2021/05/05 04:26:22;;;;;;;3.27;1.73;;;7.80;99.90;;;;;;5095586;28;20208;-65
2021/05/05 04:28:49;;;;;;;2.27;1.63;;;7.80;99.90;;;;;;5096514;28;20298;-65
2021/05/05 04:31:17;;;;;;;2.07;1.80;;;7.90;99.90;;;;;;5096361;28;20295;-65
2021/05/05 04:33:46;;;;;;;1.97;1.70;;;7.90;99.90;;;;;;5096095;28;20291;-64
2021/05/05 04:36:13;;;;;;;2.70;1.80;;;7.90;99.90;;;;;;5096403;28;20226;-65
2021/05/05 04:38:40;;;;;;;2.27;2.07;;;7.80;99.90;;;;;;5096319;28;20198;-65
2021/05/05 04:41:07;;;;;;;4.50;2.27;;;7.90;99.90;;;;;;5096302;28;20294;-65
2021/05/05 04:43:34;;;;;;;2.83;1.90;;;8.00;99.90;;;;;;5095979;28;20772;-64
2021/05/05 04:46:01;;;;;;;2.67;1.70;;;8.20;99.90;;;;;;5095831;28;20263;-64
2021/05/05 04:48:29;;;;;;;3.13;1.83;;;8.30;99.90;;;;;;5096248;28;20363;-64
2021/05/05 04:50:56;;;;;;;2.70;1.90;;;8.40;99.90;;;;;;5095914;28;20292;-64
2021/05/05 04:53:23;;;;;;;1.83;1.50;;;8.40;99.90;;;;;;5095789;28;20287;-65
2021/05/05 04:55:51;;;;;;;3.30;2.10;;;8.50;99.90;;;;;;5095563;28;20648;-65
2021/05/05 04:58:18;;;;;;;3.33;1.70;;;8.50;99.90;;;;;;5095265;28;20810;-66
2021/05/05 05:00:45;;;;;;;2.93;1.80;;;8.50;99.90;;;;;;5093071;28;20236;-65
2021/05/05 05:03:12;;;;;;;1.83;1.70;;;8.50;99.90;;;;;;5092513;28;20339;-65
2021/05/05 05:05:42;;;;;;;3.27;1.80;;;8.60;99.90;;;;;;5092869;28;20224;-63
2021/05/05 05:08:09;;;;;;;3.73;1.50;;;8.80;99.90;;;;;;5092783;28;20287;-66
2021/05/05 05:10:36;;;;;;;2.73;1.67;;;9.40;99.90;;;;;;5092643;28;20206;-68
2021/05/05 05:13:04;;;;;;;3.00;1.63;;;10.40;99.90;;;;;;5092255;28;20223;-68
2021/05/05 05:15:31;;;;;;;2.77;1.63;;;11.20;99.90;;;;;;5092460;28;20747;-67
2021/05/05 05:17:58;;;;;;;2.83;1.50;;;11.60;99.90;;;;;;5092282;28;20240;-67
2021/05/05 05:20:25;;;;;;;2.03;1.80;;;11.40;99.90;;;;;;5092314;28;20238;-66
2021/05/05 05:22:55;;;;;;;3.30;1.57;;;11.20;99.90;;;;;;5092389;28;20206;-68
2021/05/05 05:25:24;;;;;;;2.50;1.63;;;11.00;99.90;;;;;;5092330;28;20204;-65
2021/05/05 05:27:51;;;;;;;3.23;1.80;;;10.80;99.90;;;;;;5091543;28;20200;-67
2021/05/05 05:30:19;;;;;;;2.90;1.50;;;10.80;99.90;;;;;;5092134;28;20200;-66
2021/05/05 05:32:46;;;;;;;3.17;1.90;;;10.60;99.90;;;;;;5092296;28;20204;-66
2021/05/05 05:35:14;;;;;;;4.17;2.10;;;10.50;99.90;;;;;;5091531;28;20282;-64
2021/05/05 05:37:41;;;;;;;2.13;1.80;;;10.60;99.90;;;;;;5092064;28;20223;-66
2021/05/05 05:40:11;;;;;;;2.27;1.60;;;10.80;99.90;;;;;;5092007;28;20210;-66
2021/05/05 05:42:38;;;;;;;3.43;1.80;;;11.00;99.90;;;;;;5091763;28;20287;-64
2021/05/05 05:45:06;;;;;;;2.80;1.73;;;11.10;99.90;;;;;;5091583;28;20215;-65
2021/05/05 05:47:38;;;;;;;4.10;1.73;;;11.10;99.90;;;;;;5091218;28;20693;-68
2021/05/05 05:50:07;;;;;;;3.40;2.07;;;11.00;99.90;;;;;;5090601;28;20231;-63
2021/05/05 05:52:35;;;;;;;3.73;1.60;;;11.00;99.90;;;;;;5091680;28;20208;-63
2021/05/05 05:55:02;;;;;;;2.50;1.80;;;11.00;99.90;;;;;;5090072;28;20652;-63
2021/05/05 05:57:30;;;;;;;2.47;1.90;;;11.00;99.90;;;;;;5091379;28;20200;-65
2021/05/05 05:59:57;;;;;;;3.40;1.83;;;10.90;99.90;;;;;;5091140;28;20283;-62
2021/05/05 06:02:23;;;;;;;2.20;1.90;;;10.80;99.90;;;;;;5091308;28;20208;-63
2021/05/05 06:04:50;;;;;;;5.53;2.30;;;10.80;99.90;;;;;;5091456;28;20289;-65
2021/05/05 06:07:17;;;;;;;4.37;1.97;;;10.80;99.90;;;;;;5091412;28;20236;-64
2021/05/05 06:09:44;;;;;;;3.13;2.00;;;10.80;99.90;;;;;;5091240;28;20200;-62
2021/05/05 06:12:11;;;;;;;4.27;2.10;;;10.70;99.90;;;;;;5091188;28;20291;-63
2021/05/05 06:14:39;;;;;;;3.47;1.90;;;10.60;99.90;;;;;;5090903;28;20265;-65
2021/05/05 06:17:06;;;;;;;9.30;7.97;;;10.50;99.90;;;;;;5091309;28;20282;-61
2021/05/05 06:19:33;;;;;;;2.93;2.30;;;10.50;99.90;;;;;;5091065;28;20261;-61
2021/05/05 06:22:00;;;;;;;4.10;2.10;;;10.40;99.90;;;;;;5090937;28;20287;-62
2021/05/05 06:24:27;;;;;;;3.63;1.90;;;10.30;99.90;;;;;;5090753;28;20258;-64
2021/05/05 06:26:54;;;;;;;3.40;1.83;;;10.40;99.90;;;;;;5090455;28;20685;-64
2021/05/05 06:29:21;;;;;;;5.10;2.00;;;10.50;99.90;;;;;;5090632;28;20287;-64
2021/05/05 06:31:49;;;;;;;4.03;2.13;;;10.50;99.90;;;;;;5091132;28;20221;-63
2021/05/05 06:34:16;;;;;;;6.07;2.33;;;10.70;99.90;;;;;;5091719;28;20204;-64
2021/05/05 06:36:43;;;;;;;5.00;2.57;;;10.60;99.90;;;;;;5091312;28;20222;-64
2021/05/05 06:39:11;;;;;;;3.43;2.20;;;10.40;99.90;;;;;;5090929;28;20328;-63
2021/05/05 06:41:39;;;;;;;4.67;2.23;;;10.00;99.90;;;;;;5090219;28;20200;-64
2021/05/05 06:44:07;;;;;;;4.50;2.10;;;9.80;99.90;;;;;;5090009;28;20689;-65
2021/05/05 06:46:35;;;;;;;4.87;2.30;;;9.80;99.90;;;;;;5090303;28;20300;-65
2021/05/05 06:49:03;;;;;;;3.60;2.27;;;9.90;99.90;;;;;;5089670;28;20270;-65
2021/05/05 06:51:29;;;;;;;4.30;2.30;;;10.00;99.90;;;;;;5090404;28;20210;-65
2021/05/05 06:53:56;;;;;;;8.00;2.67;;;10.10;99.90;;;;;;5090603;28;20287;-66
2021/05/05 06:56:23;;;;;;;3.27;2.00;;;10.10;99.90;;;;;;5090312;28;20306;-65
2021/05/05 06:58:50;;;;;;;4.23;2.37;;;10.10;99.90;;;;;;5090275;28;20207;-65
2021/05/05 07:01:18;;;;;;;5.10;2.17;;;10.10;99.90;;;;;;5090114;28;20204;-64
2021/05/05 07:03:45;;;;;;;3.10;1.70;;;10.10;99.90;;;;;;5090839;28;20260;-66
2021/05/05 07:06:13;;;;;;;4.43;2.07;;;10.20;99.90;;;;;;5090910;28;20311;-65
2021/05/05 07:08:40;;;;;;;4.20;2.17;;;10.20;99.90;;;;;;5090614;28;20294;-64
2021/05/05 07:11:07;;;;;;;2.37;1.87;;;10.30;99.90;;;;;;5090631;28;20306;-65
2021/05/05 07:13:34;;;;;;;2.27;1.87;;;10.40;99.90;;;;;;5089935;28;20668;-66
2021/05/05 07:16:01;;;;;;;3.33;1.90;;;10.40;99.90;;;;;;5090145;28;20631;-64
2021/05/05 07:18:28;;;;;;;5.00;2.50;;;10.50;99.90;;;;;;5090246;28;20282;-64
2021/05/05 07:20:55;;;;;;;2.40;1.77;;;10.50;99.90;;;;;;5090287;28;20200;-64
2021/05/05 07:23:23;;;;;;;4.40;2.40;;;10.60;99.90;;;;;;5090143;28;20235;-62
2021/05/05 07:25:50;;;;;;;5.47;2.27;;;10.70;99.90;;;;;;5089994;28;20589;-67
2021/05/05 07:28:17;;;;;;;3.43;2.30;;;10.80;99.90;;;;;;5088987;28;20690;-63
2021/05/05 07:30:44;;;;;;;7.07;2.30;;;10.70;99.90;;;;;;5088981;28;20204;-64
2021/05/05 07:33:13;;;;;;;4.13;2.13;;;10.80;99.90;;;;;;5089792;28;20247;-64
2021/05/05 07:35:42;;;;;;;4.00;2.53;;;10.80;99.90;;;;;;5089626;28;20291;-63
2021/05/05 07:38:23;;;;;;;4.73;2.47;;;10.90;99.90;;;;;;5089583;28;20239;-65
2021/05/05 07:46:33;;;;;;;3.33;2.20;;;11.00;99.90;;;;;;5089799;28;20200;-60
2021/05/05 07:49:02;;;;;;;4.53;2.27;;;11.10;99.90;;;;;;5089995;28;20295;-64
2021/05/05 07:51:28;;;;;;;4.53;2.33;;;11.20;99.90;;;;;;5089890;28;20188;-64
2021/05/05 07:53:55;;;;;;;3.33;2.40;;;11.30;99.90;;;;;;5089644;28;20246;-63
2021/05/05 07:56:22;;;;;;;3.80;2.20;;;11.50;99.90;;;;;;5089370;28;20275;-63
2021/05/05 07:58:48;;;;;;;5.43;2.57;;;11.70;99.90;;;;;;5089297;28;20283;-63
2021/05/05 08:01:17;;;;;;;5.23;2.67;;;11.80;99.90;;;;;;5089307;28;20192;-63
2021/05/05 08:03:46;;;;;;;3.80;2.37;;;11.80;99.90;;;;;;5089339;28;20853;-63
2021/05/05 08:06:13;;;;;;;5.90;2.47;;;11.80;99.90;;;;;;5089297;28;20282;-64
2021/05/05 08:08:40;;;;;;;5.37;2.53;;;11.80;99.90;;;;;;5089321;28;20656;-63
2021/05/05 08:11:06;;;;;;;2.67;2.33;;;11.70;99.90;;;;;;5089220;28;20663;-63
2021/05/05 08:13:34;;;;;;;2.37;2.10;;;11.70;99.90;;;;;;5089166;28;20651;-63
2021/05/05 08:16:01;;;;;;;4.73;1.90;;;11.80;99.90;;;;;;5089559;28;20590;-65
2021/05/05 08:18:29;;;;;;;5.77;2.10;;;11.80;99.90;;;;;;5089299;28;20206;-65
2021/05/05 08:20:56;;;;;;;2.73;2.10;;;11.90;99.90;;;;;;5089007;28;20711;-66
2021/05/05 08:23:23;;;;;;;2.87;1.87;;;12.00;99.90;;;;;;5089332;28;20192;-65
2021/05/05 08:25:50;;;;;;;3.73;1.70;;;12.20;99.90;;;;;;5089037;28;20230;-64
2021/05/05 08:28:17;;;;;;;2.00;1.50;;;12.30;99.90;;;;;;5088351;28;20291;-65
2021/05/05 08:30:44;;;;;;;2.63;1.80;;;12.20;99.90;;;;;;5089282;28;20203;-67
2021/05/05 08:33:11;;;;;;;4.43;1.90;;;12.10;99.90;;;;;;5089143;28;20287;-65
2021/05/05 08:35:39;;;;;;;3.43;1.90;;;11.90;99.90;;;;;;5089239;28;20191;-63
2021/05/05 08:38:06;;;;;;;3.13;1.70;;;12.00;99.90;;;;;;5089067;28;20206;-66
2021/05/05 08:40:33;;;;;;;2.87;1.63;;;12.00;99.90;;;;;;5088452;28;20247;-65
2021/05/05 08:43:01;;;;;;;3.47;1.47;;;12.10;99.90;;;;;;5088541;28;20208;-60
2021/05/05 08:45:30;;;;;;;3.63;2.03;;;12.30;99.90;;;;;;5089130;28;20277;-60
2021/05/05 08:47:59;;;;;;;1.97;1.50;;;12.40;99.90;;;;;;5089071;28;20591;-60
2021/05/05 08:50:28;;;;;;;1.87;1.50;;;12.40;99.90;;;;;;5088830;28;20234;-65
2021/05/05 08:52:56;;;;;;;2.80;1.57;;;12.10;99.90;;;;;;5089072;28;20196;-64
2021/05/05 08:55:25;;;;;;;3.53;1.60;;;11.90;99.90;;;;;;5088611;28;20195;-63
2021/05/05 08:57:52;;;;;;;4.07;1.87;;;11.80;99.90;;;;;;5088794;28;20292;-65
2021/05/05 09:00:22;;;;;;;2.93;1.50;;;11.70;99.90;;;;;;5088864;28;20200;-64
2021/05/05 09:02:49;;;;;;;2.60;1.60;;;11.70;99.90;;;;;;5088750;28;20239;-65
2021/05/05 09:05:49;;;;;;;4.30;1.60;;;11.70;99.90;;;;;;5088725;28;20225;-65
2021/05/05 09:08:15;;;;;;;3.43;1.53;;;11.70;99.90;;;;;;5089013;28;20185;-67
2021/05/05 09:10:57;;;;;;;4.40;1.67;;;11.80;99.90;;;;;;5089961;28;20261;-63
2021/05/05 09:13:48;;;;;;;3.83;1.87;;;12.00;99.90;;;;;;5092335;28;20184;-61
2021/05/05 09:16:17;;;;;;;3.43;1.93;;;12.10;99.90;;;;;;5092640;28;20216;-62
2021/05/05 09:18:55;;;;;;;2.80;1.90;;;12.30;99.90;;;;;;5092145;28;20299;-66
2021/05/05 09:21:28;;;;;;;3.33;1.67;;;12.30;99.90;;;;;;5092593;28;20224;-67
2021/05/05 09:24:20;;;;;;;3.03;2.00;;;12.30;99.90;;;;;;5092534;28;20276;-66
2021/05/05 09:26:49;;;;;;;2.27;2.00;;;12.30;99.90;;;;;;5091640;28;20302;-67
2021/05/05 09:29:16;;;;;;;2.83;1.83;;;12.20;99.90;;;;;;5089709;28;20693;-67
2021/05/05 09:31:45;;;;;;;4.57;2.20;;;12.10;99.90;;;;;;5071894;28;20239;-67
2021/05/05 09:34:12;;;;;;;2.13;1.83;;;12.10;99.90;;;;;;5071399;28;20677;-68
2021/05/05 09:36:42;;;;;;;2.27;1.33;;;12.10;99.90;;;;;;5071380;28;20209;-67
2021/05/05 09:39:10;;;;;;;2.63;1.90;;;12.10;99.90;;;;;;5071768;28;20296;-67
2021/05/05 09:41:45;;;;;;;2.17;1.70;;;12.00;99.90;;;;;;5071489;28;20209;-68
2021/05/05 09:44:13;;;;;;;4.33;1.90;;;12.00;99.90;;;;;;5070936;28;20193;-68
2021/05/05 09:46:41;;;;;;;2.83;1.90;;;12.00;99.90;;;;;;5071465;28;20572;-60
2021/05/05 09:49:19;;;;;;;2.87;1.80;;;12.10;99.90;;;;;;5071359;28;20202;-61
2021/05/05 09:51:49;;;;;;;2.70;1.73;;;12.20;99.90;;;;;;5071537;28;20228;-60
2021/05/05 09:54:24;;;;;;;3.30;1.87;;;12.40;99.90;;;;;;5071247;28;20232;-60
2021/05/05 09:56:51;;;;;;;2.17;1.80;;;12.40;99.90;;;;;;5071009;28;20200;-62
2021/05/05 09:59:19;;;;;;;2.77;1.70;;;12.50;99.90;;;;;;5071331;28;20291;-64
2021/05/05 10:02:02;;;;;;;2.30;1.80;;;12.40;99.90;;;;;;5071190;28;20292;-63
2021/05/05 10:04:31;;;;;;;2.33;1.73;;;12.50;99.90;;;;;;5071206;28;20259;-62
2021/05/05 10:07:01;;;;;;;3.27;1.30;;;12.40;99.90;;;;;;5071248;28;20288;-63
2021/05/05 10:09:28;;;;;;;1.57;1.40;;;12.50;99.90;;;;;;5071261;28;20209;-63
2021/05/05 10:11:55;;;;;;;3.33;1.53;;;12.50;99.90;;;;;;5070812;28;20631;-63
2021/05/05 10:14:23;;;;;;;3.07;1.40;;;12.50;99.90;;;;;;5071131;28;20291;-63
2021/05/05 10:16:51;;;;;;;1.60;1.20;;;12.50;99.90;;;;;;5071539;28;20200;-62
2021/05/05 10:19:21;;;;;;;2.70;1.17;;;12.60;99.90;;;;;;5071219;28;20287;-64
2021/05/05 10:21:52;;;;;;;1.80;1.10;;;12.80;99.90;;;;;;5071064;28;20204;-61
2021/05/05 10:24:22;;;;;;;1.53;1.30;;;13.00;99.90;;;;;;5070816;28;20185;-62
2021/05/05 10:26:49;;;;;;;1.33;1.20;;;13.10;99.90;;;;;;5070692;28;20577;-66
2021/05/05 10:29:17;;;;;;;2.50;1.20;;;13.10;99.90;;;;;;5070321;28;20196;-67
2021/05/05 10:31:49;;;;;;;2.17;1.10;;;13.00;99.90;;;;;;5086360;28;20196;-69
2021/05/05 10:34:20;;;;;;;3.27;1.40;;;12.80;99.90;;;;;;5091095;28;20187;-66
2021/05/05 10:36:51;;;;;;;1.97;1.30;;;12.60;99.90;;;;;;5090700;28;20699;-65
2021/05/05 10:39:42;;;;;;;3.03;1.30;;;12.40;99.90;;;;;;5090685;28;20224;-68
2021/05/05 10:42:14;;;;;;;2.23;1.20;;;12.40;99.90;;;;;;5090819;28;20216;-66
2021/05/05 10:44:48;;;;;;;1.63;1.13;;;12.60;99.90;;;;;;5090593;28;20182;-64
2021/05/05 10:47:21;;;;;;;2.23;1.10;;;12.90;99.90;;;;;;5090679;28;20655;-70
2021/05/05 10:50:11;;;;;;;3.53;1.10;;;12.90;99.90;;;;;;5090631;28;20281;-67
2021/05/05 10:53:06;;;;;;;2.50;1.07;;;13.10;99.90;;;;;;5090829;28;20234;-65
2021/05/05 10:55:43;;;;;;;3.17;1.20;;;13.30;99.90;;;;;;5090717;28;20622;-64
2021/05/05 10:58:13;;;;;;;2.00;1.00;;;13.10;99.90;;;;;;5090174;28;20267;-64
2021/05/05 11:00:48;;;;;;;3.53;1.20;;;12.80;99.90;;;;;;5090485;28;20758;-64
2021/05/05 11:03:16;;;;;;;1.57;1.00;;;12.70;99.90;;;;;;5090415;28;20306;-65
2021/05/05 11:05:45;;;;;;;2.00;0.93;;;12.70;99.90;;;;;;5090547;28;20259;-65
2021/05/05 11:08:26;;;;;;;1.17;0.97;;;12.80;99.90;;;;;;5090034;28;20290;-69
2021/05/05 11:10:55;;;;;;;3.33;1.00;;;12.90;99.90;;;;;;5090363;28;20277;-67
2021/05/05 11:13:39;;;;;;;3.00;1.00;;;13.10;99.90;;;;;;5090111;28;20332;-68
2021/05/05 11:16:07;;;;;;;2.37;0.97;;;13.10;99.90;;;;;;5090234;28;20202;-68
2021/05/05 11:18:45;;;;;;;1.77;1.20;;;13.10;99.90;;;;;;5089978;28;20235;-68
2021/05/05 11:21:41;;;;;;;4.87;1.80;;;13.00;99.90;;;;;;5090282;28;20235;-68
2021/05/05 11:24:28;;;;;;;3.10;1.97;;;12.70;99.90;;;;;;5090178;28;20286;-62
2021/05/05 11:26:56;;;;;;;3.40;2.10;;;12.10;99.90;;;;;;5090021;28;20219;-62
2021/05/05 11:29:35;;;;;;;3.30;2.00;;;11.70;99.90;;;;;;5089648;28;20306;-66
2021/05/05 11:32:08;;;;;;;2.53;2.10;;;11.40;99.90;;;;;;5090032;28;20184;-61
2021/05/05 11:34:37;;;;;;;3.50;2.27;;;11.10;99.90;;;;;;5089667;28;20184;-62
2021/05/05 11:37:21;;;;;;;2.50;2.20;;;11.10;99.90;;;;;;5090106;28;20195;-63
2021/05/05 11:39:51;;;;;;;3.00;2.07;;;11.30;99.90;;;;;;5089997;28;20321;-62
2021/05/05 11:42:23;;;;;;;2.10;1.77;;;11.50;99.90;;;;;;5089706;28;20206;-65
2021/05/05 11:45:09;;;;;;;2.47;2.00;;;11.70;99.90;;;;;;5089481;28;20188;-69
2021/05/05 11:47:39;;;;;;;1.80;1.70;;;11.80;99.90;;;;;;5090277;28;20222;-65
2021/05/05 11:50:09;;;;;;;3.30;1.80;;;12.00;99.90;;;;;;5089506;28;20553;-66
2021/05/05 11:52:38;;;;;;;4.23;1.43;;;12.30;99.90;;;;;;5089668;28;20694;-66
2021/05/05 11:55:16;;;;;;;2.90;1.63;;;12.50;99.90;;;;;;5089372;28;20208;-65
2021/05/05 11:57:48;;;;;;;1.70;1.60;;;12.60;99.90;;;;;;5089573;28;20271;-66
2021/05/05 12:00:17;;;;;;;1.60;0.80;;;12.70;99.90;;;;;;5089562;28;20279;-62
2021/05/05 12:02:47;;;;;;;1.13;0.50;;;12.70;99.90;;;;;;5089528;28;20318;-62
2021/05/05 12:05:25;;;;;;;0.80;0.80;;;12.70;99.90;;;;;;5089322;28;20191;-63
2021/05/05 12:08:04;;;;;;;1.27;0.90;;;12.70;99.90;;;;;;5089611;28;20676;-66
2021/05/05 12:10:37;;;;;;;1.20;0.90;;;12.50;99.90;;;;;;5089642;28;20184;-64
2021/05/05 12:13:06;;;;;;;1.00;0.90;;;12.30;99.90;;;;;;5089297;28;20206;-65
2021/05/05 12:15:35;;;;;;;1.70;1.00;;;12.30;99.90;;;;;;5089407;28;20295;-64
2021/05/05 12:18:13;;;;;;;1.10;0.97;;;12.50;99.90;;;;;;5089040;28;20788;-64
2021/05/05 12:20:40;;;;;;;3.10;0.90;;;12.60;99.90;;;;;;5089215;28;20750;-64
2021/05/05 12:23:07;;;;;;;1.73;1.37;;;12.80;99.90;;;;;;5089050;28;20287;-62
2021/05/05 12:25:33;;;;;;;1.93;1.00;;;13.10;99.90;;;;;;5088960;28;20684;-65
2021/05/05 12:28:07;;;;;;;1.67;1.20;;;13.40;99.90;;;;;;5088930;28;20200;-67
2021/05/05 12:30:49;;;;;;;3.20;1.40;;;13.50;99.90;;;;;;5089461;28;20185;-67
2021/05/05 12:33:19;;;;;;;1.73;1.63;;;13.40;99.90;;;;;;5089389;28;20192;-65
2021/05/05 12:35:48;;;;;;;1.47;0.80;;;13.10;99.90;;;;;;5089395;28;20196;-64
2021/05/05 12:38:18;;;;;;;1.60;0.50;;;12.50;99.90;;;;;;5089207;28;20295;-63
2021/05/05 12:40:46;;;;;;;1.23;0.50;;;11.30;99.90;;;;;;5089297;28;20279;-62
2021/05/05 12:43:23;;;;;;;0.40;0.30;;;10.50;99.90;;;;;;5084572;28;20295;-65
2021/05/05 12:45:52;;;;;;;1.17;0.50;;;9.90;99.90;;;;;;5084910;28;20598;-66
2021/05/05 12:48:29;;;;;;;0.60;0.40;;;9.50;99.90;;;;;;5093058;28;20206;-66
2021/05/05 12:51:12;;;;;;;0.73;0.40;;;9.40;99.90;;;;;;5092922;28;20573;-67
2021/05/05 12:53:51;;;;;;;0.67;0.50;;;9.60;99.90;;;;;;5092963;28;20279;-66
2021/05/05 12:56:19;;;;;;;0.50;0.50;;;9.70;99.90;;;;;;5092494;28;20635;-66
2021/05/05 12:58:51;;;;;;;2.00;0.40;;;9.80;99.90;;;;;;5092418;28;20184;-59
2021/05/05 13:01:18;;;;;;;0.80;0.40;;;9.90;99.90;;;;;;5092762;28;20210;-59
2021/05/05 13:03:47;;;;;;;1.23;0.50;;;9.80;99.90;;;;;;5092267;28;20592;-63
2021/05/05 13:06:14;;;;;;;0.67;0.40;;;9.90;99.90;;;;;;5092238;28;20585;-64
2021/05/05 13:08:48;;;;;;;0.60;0.60;;;10.00;99.90;;;;;;5092569;28;20196;-67